Time;durP1;ratioP1;P1;durP2;ratioP2;P2;SDS_P1;SDS_P2;PMS_P1;PMS_P2;Temp;Humidity;BMP_temperature;BMP_pressure;BME280_temperature;BME280_humidity;BME280_pressure;Samples;Min_cycle;Max_cycle;Signal;HPM_P1;HPM_P2
2022/09/11 00:03:31;;;;;;;0.10;0.10;;;;;;;;;;5055414;22;20342;-93
2022/09/11 00:06:00;;;;;;;0.17;0.17;;;;;;;;;;5021689;28;20041;-93
2022/09/11 00:08:33;;;;;;;0.20;0.20;;;;;;;;;;5021766;28;20229;-94
2022/09/11 00:11:09;;;;;;;0.15;0.15;;;;;;;;;;5021616;28;20392;-93
2022/09/11 00:13:35;;;;;;;0.10;0.10;;;;;;;;;;5005061;28;20045;-91
2022/09/11 00:16:02;;;;;;;0.10;0.10;;;;;;;;;;5004508;28;20041;-90
2022/09/11 00:18:28;;;;;;;0.10;0.10;;;;;;;;;;5005001;28;20140;-91
2022/09/11 00:20:55;;;;;;;0.10;0.10;;;;;;;;;;5020539;28;20052;-90
2022/09/11 00:23:21;;;;;;;0.40;0.40;;;;;;;;;;5004429;28;20033;-90
2022/09/11 00:25:48;;;;;;;0.10;0.10;;;;;;;;;;5004557;28;20047;-90
2022/09/11 00:28:15;;;;;;;0.10;0.10;;;;;;;;;;5004348;28;20091;-91
2022/09/11 00:30:42;;;;;;;0.20;0.20;;;;;;;;;;5004154;28;20044;-90
2022/09/11 00:33:08;;;;;;;0.10;0.10;;;;;;;;;;5004386;28;20446;-90
2022/09/11 00:35:34;;;;;;;0.10;0.10;;;;;;;;;;5004260;28;20200;-90
2022/09/11 00:38:00;;;;;;;0.10;0.10;;;;;;;;;;5004566;28;20111;-91
2022/09/11 00:40:26;;;;;;;0.10;0.10;;;;;;;;;;5020293;28;20041;-90
2022/09/11 00:42:52;;;;;;;0.10;0.10;;;;;;;;;;5003915;28;20033;-89
2022/09/11 00:45:20;;;;;;;0.10;0.10;;;;;;;;;;5036629;28;20033;-89
2022/09/11 00:47:46;;;;;;;0.10;0.10;;;;;;;;;;5004146;28;20044;-91
2022/09/11 00:50:13;;;;;;;0.10;0.10;;;;;;;;;;5020445;28;20134;-91
2022/09/11 00:52:41;;;;;;;0.10;0.10;;;;;;;;;;5003886;28;20052;-90
2022/09/11 00:55:08;;;;;;;0.10;0.10;;;;;;;;;;5004030;28;20043;-90
2022/09/11 00:57:38;;;;;;;0.10;0.10;;;;;;;;;;5019948;28;20052;-91
2022/09/11 01:00:04;;;;;;;0.10;0.10;;;;;;;;;;5019463;28;20044;-90
2022/09/11 01:02:31;;;;;;;0.30;0.30;;;;;;;;;;5003451;28;20049;-90
2022/09/11 01:04:57;;;;;;;0.10;0.10;;;;;;;;;;5019866;28;20055;-91
2022/09/11 01:07:23;;;;;;;0.10;0.10;;;;;;;;;;5003848;28;20037;-91
2022/09/11 01:09:50;;;;;;;0.20;0.20;;;;;;;;;;5020161;28;20075;-91
2022/09/11 01:12:23;;;;;;;0.10;0.10;;;;;;;;;;5004750;28;20037;-91
2022/09/11 01:14:57;;;;;;;0.10;0.10;;;;;;;;;;5002185;28;20052;-90
2022/09/11 01:17:27;;;;;;;0.10;0.10;;;;;;;;;;5026639;28;20037;-90
2022/09/11 01:20:12;;;;;;;0.10;0.10;;;;;;;;;;5024215;28;20041;-90
2022/09/11 01:22:38;;;;;;;0.10;0.10;;;;;;;;;;5019527;28;20044;-90
2022/09/11 01:25:09;;;;;;;0.10;0.10;;;;;;;;;;5036407;28;20044;-91
2022/09/11 01:27:41;;;;;;;0.10;0.10;;;;;;;;;;5003234;28;20033;-91
2022/09/11 01:30:28;;;;;;;0.10;0.10;;;;;;;;;;5003282;28;20503;-91
2022/09/11 01:33:02;;;;;;;0.10;0.10;;;;;;;;;;5019285;28;20037;-90
2022/09/11 01:35:36;;;;;;;0.10;0.10;;;;;;;;;;5019650;28;20586;-90
2022/09/11 01:38:22;;;;;;;0.10;0.10;;;;;;;;;;5002904;28;20075;-90
2022/09/11 01:40:52;;;;;;;0.10;0.10;;;;;;;;;;5022170;28;20057;-90
2022/09/11 01:43:21;;;;;;;0.10;0.10;;;;;;;;;;5019220;28;20037;-89
2022/09/11 01:45:47;;;;;;;0.10;0.10;;;;;;;;;;5003289;28;20043;-91
2022/09/11 01:48:14;;;;;;;0.10;0.10;;;;;;;;;;5002712;28;20057;-90
2022/09/11 01:50:40;;;;;;;0.10;0.10;;;;;;;;;;5002529;28;20051;-91
2022/09/11 01:53:06;;;;;;;0.10;0.10;;;;;;;;;;5018993;28;20127;-90
2022/09/11 01:55:40;;;;;;;0.20;0.20;;;;;;;;;;5002560;28;20045;-91
2022/09/11 01:58:10;;;;;;;0.13;0.13;;;;;;;;;;5002863;28;20045;-90
2022/09/11 02:00:38;;;;;;;0.10;0.10;;;;;;;;;;5002298;28;20051;-90
2022/09/11 02:03:09;;;;;;;0.10;0.10;;;;;;;;;;5018734;28;20128;-89
2022/09/11 02:05:40;;;;;;;0.10;0.10;;;;;;;;;;5002342;28;20045;-90
2022/09/11 02:08:16;;;;;;;0.20;0.20;;;;;;;;;;5018795;28;20041;-90
2022/09/11 02:10:45;;;;;;;0.10;0.10;;;;;;;;;;5018269;28;20049;-89
2022/09/11 02:13:13;;;;;;;0.10;0.10;;;;;;;;;;5018779;28;20186;-89
2022/09/11 02:15:43;;;;;;;0.13;0.13;;;;;;;;;;5002157;28;20127;-91
2022/09/11 02:18:25;;;;;;;0.10;0.10;;;;;;;;;;5002225;28;20041;-92
2022/09/11 02:20:53;;;;;;;0.10;0.10;;;;;;;;;;5002244;28;20047;-92
2022/09/11 02:23:20;;;;;;;0.10;0.10;;;;;;;;;;5002424;28;20131;-92
2022/09/11 02:25:46;;;;;;;0.10;0.10;;;;;;;;;;5018901;28;20045;-91
2022/09/11 02:28:13;;;;;;;0.10;0.10;;;;;;;;;;5002152;28;20047;-90
2022/09/11 02:30:39;;;;;;;0.10;0.10;;;;;;;;;;5002116;28;20505;-92
2022/09/11 02:33:05;;;;;;;0.10;0.10;;;;;;;;;;5001876;28;20060;-92
2022/09/11 02:35:33;;;;;;;0.10;0.10;;;;;;;;;;5018064;28;20094;-92
2022/09/11 02:38:03;;;;;;;0.10;0.10;;;;;;;;;;5018648;28;20048;-91
2022/09/11 02:40:42;;;;;;;0.10;0.10;;;;;;;;;;5034316;28;20037;-92
2022/09/11 02:43:15;;;;;;;0.10;0.10;;;;;;;;;;5018549;28;20060;-92
2022/09/11 02:45:47;;;;;;;0.10;0.10;;;;;;;;;;5018267;28;20503;-90
2022/09/11 02:48:30;;;;;;;0.10;0.10;;;;;;;;;;5001492;28;20462;-90
2022/09/11 02:51:02;;;;;;;0.10;0.10;;;;;;;;;;5001792;28;20456;-90
2022/09/11 02:53:31;;;;;;;0.10;0.10;;;;;;;;;;5001646;28;20045;-91
2022/09/11 02:56:08;;;;;;;0.10;0.10;;;;;;;;;;5001509;28;20045;-91
2022/09/11 02:58:49;;;;;;;0.10;0.10;;;;;;;;;;5001322;28;20037;-91
2022/09/11 03:01:15;;;;;;;0.10;0.10;;;;;;;;;;5017676;28;20045;-91
2022/09/11 03:03:42;;;;;;;0.10;0.10;;;;;;;;;;5001852;28;20102;-90
2022/09/11 03:06:08;;;;;;;0.10;0.10;;;;;;;;;;5001588;28;20553;-90
2022/09/11 03:08:34;;;;;;;0.10;0.10;;;;;;;;;;5018062;28;20060;-90
2022/09/11 03:11:00;;;;;;;0.10;0.10;;;;;;;;;;5017658;28;20040;-90
2022/09/11 03:13:26;;;;;;;0.10;0.10;;;;;;;;;;5001619;28;20045;-90
2022/09/11 03:15:53;;;;;;;0.10;0.10;;;;;;;;;;5001529;28;20037;-91
2022/09/11 03:18:19;;;;;;;0.10;0.10;;;;;;;;;;5017786;28;20051;-90
2022/09/11 03:20:48;;;;;;;0.10;0.10;;;;;;;;;;5001199;28;20032;-91
2022/09/11 03:23:14;;;;;;;0.10;0.10;;;;;;;;;;5004891;28;20086;-90
2022/09/11 03:25:40;;;;;;;0.10;0.10;;;;;;;;;;5005239;28;20033;-90
2022/09/11 03:28:06;;;;;;;0.10;0.10;;;;;;;;;;5021896;28;20098;-90
2022/09/11 03:30:34;;;;;;;0.10;0.10;;;;;;;;;;5005304;28;20037;-90
2022/09/11 03:33:00;;;;;;;0.10;0.10;;;;;;;;;;5005307;28;20040;-89
2022/09/11 03:35:26;;;;;;;0.10;0.10;;;;;;;;;;5005052;28;20552;-91
2022/09/11 03:37:54;;;;;;;0.10;0.10;;;;;;;;;;5005237;28;20041;-89
2022/09/11 03:40:20;;;;;;;0.20;0.20;;;;;;;;;;5037642;28;20044;-90
2022/09/11 03:42:46;;;;;;;0.10;0.10;;;;;;;;;;5005293;28;20103;-91
2022/09/11 03:45:13;;;;;;;0.10;0.10;;;;;;;;;;5005020;28;20048;-90
2022/09/11 03:47:39;;;;;;;0.10;0.10;;;;;;;;;;5005361;28;20381;-90
2022/09/11 03:50:06;;;;;;;0.10;0.10;;;;;;;;;;5021364;28;20045;-91
2022/09/11 03:52:32;;;;;;;0.10;0.10;;;;;;;;;;5004903;28;20041;-91
2022/09/11 03:54:59;;;;;;;0.10;0.10;;;;;;;;;;5004904;28;20051;-91
2022/09/11 03:57:25;;;;;;;0.10;0.10;;;;;;;;;;5005184;28;20051;-91
2022/09/11 03:59:51;;;;;;;0.10;0.10;;;;;;;;;;5021153;28;20083;-90
2022/09/11 04:02:17;;;;;;;0.10;0.10;;;;;;;;;;5004696;28;20093;-91
2022/09/11 04:04:43;;;;;;;0.10;0.10;;;;;;;;;;5004849;28;20045;-90
2022/09/11 04:07:09;;;;;;;0.10;0.10;;;;;;;;;;5020816;28;20037;-89
2022/09/11 04:09:35;;;;;;;0.10;0.10;;;;;;;;;;5004926;28;20124;-90
2022/09/11 04:12:02;;;;;;;0.10;0.10;;;;;;;;;;5004559;28;20099;-90
2022/09/11 04:14:27;;;;;;;0.10;0.10;;;;;;;;;;5004521;28;20049;-89
2022/09/11 04:16:53;;;;;;;0.10;0.10;;;;;;;;;;5020923;28;20337;-90
2022/09/11 04:19:21;;;;;;;0.10;0.10;;;;;;;;;;5020811;28;20052;-90
2022/09/11 04:21:47;;;;;;;0.10;0.10;;;;;;;;;;5020606;28;20110;-90
2022/09/11 04:24:14;;;;;;;0.10;0.10;;;;;;;;;;5004615;28;20374;-90
2022/09/11 04:26:40;;;;;;;0.10;0.10;;;;;;;;;;5004403;28;20047;-90
2022/09/11 04:29:06;;;;;;;0.10;0.10;;;;;;;;;;5004124;28;20036;-91
2022/09/11 04:31:33;;;;;;;0.10;0.10;;;;;;;;;;5004316;28;20060;-90
2022/09/11 04:33:59;;;;;;;0.10;0.10;;;;;;;;;;5003830;28;20471;-90
2022/09/11 04:36:25;;;;;;;0.10;0.10;;;;;;;;;;5004349;28;20113;-91
2022/09/11 04:38:54;;;;;;;0.10;0.10;;;;;;;;;;5004341;28;20131;-91
2022/09/11 04:41:20;;;;;;;0.10;0.10;;;;;;;;;;5004020;28;20099;-91
2022/09/11 04:43:46;;;;;;;0.10;0.10;;;;;;;;;;5003981;28;20524;-91
2022/09/11 04:46:13;;;;;;;0.10;0.10;;;;;;;;;;5020466;28;20079;-92
2022/09/11 04:48:45;;;;;;;0.10;0.10;;;;;;;;;;5003925;28;20048;-92
2022/09/11 04:51:11;;;;;;;;;;;;;;;;;;5004677;28;20041;-91
2022/09/11 04:53:37;;;;;;;0.10;0.10;;;;;;;;;;5037007;28;19979;-92
2022/09/11 04:56:04;;;;;;;0.10;0.10;;;;;;;;;;5004318;28;20052;-92
2022/09/11 04:58:32;;;;;;;0.10;0.10;;;;;;;;;;5004133;28;20052;-92
2022/09/11 05:00:58;;;;;;;0.10;0.10;;;;;;;;;;5003650;28;20063;-92
2022/09/11 05:03:24;;;;;;;0.10;0.10;;;;;;;;;;5000195;28;20053;-92
2022/09/11 05:05:50;;;;;;;0.10;0.10;;;;;;;;;;5000265;28;20073;-92
2022/09/11 05:08:23;;;;;;;0.10;0.10;;;;;;;;;;5016837;28;20045;-92
2022/09/11 05:11:09;;;;;;;0.22;0.22;;;;;;;;;;5002690;28;20099;-93
2022/09/11 05:13:36;;;;;;;0.20;0.20;;;;;;;;;;5019480;28;20395;-92
2022/09/11 05:16:02;;;;;;;0.10;0.10;;;;;;;;;;5001165;28;20041;-92
2022/09/11 05:18:29;;;;;;;0.10;0.10;;;;;;;;;;5001000;28;20404;-92
2022/09/11 05:21:00;;;;;;;0.10;0.10;;;;;;;;;;5000222;28;20038;-92
2022/09/11 05:23:27;;;;;;;0.10;0.10;;;;;;;;;;5000768;28;20389;-92
2022/09/11 05:25:56;;;;;;;0.17;0.17;;;;;;;;;;5016257;28;20049;-92
2022/09/11 05:28:22;;;;;;;0.10;0.10;;;;;;;;;;4999970;28;20083;-89
2022/09/11 05:30:48;;;;;;;0.10;0.10;;;;;;;;;;4999803;28;20051;-89
2022/09/11 05:33:14;;;;;;;0.10;0.10;;;;;;;;;;4999721;28;20141;-90
2022/09/11 05:35:40;;;;;;;0.10;0.10;;;;;;;;;;4999668;28;20116;-89
2022/09/11 05:38:09;;;;;;;0.10;0.10;;;;;;;;;;5016225;28;20042;-89
2022/09/11 05:40:35;;;;;;;0.10;0.10;;;;;;;;;;4999412;28;20042;-89
2022/09/11 05:43:01;;;;;;;0.10;0.10;;;;;;;;;;4999798;28;20040;-90
2022/09/11 05:45:27;;;;;;;0.10;0.10;;;;;;;;;;4999571;28;20103;-91
2022/09/11 05:47:53;;;;;;;0.10;0.10;;;;;;;;;;4999736;28;20473;-90
2022/09/11 05:50:20;;;;;;;0.10;0.10;;;;;;;;;;4999310;28;20091;-91
2022/09/11 05:52:47;;;;;;;0.10;0.10;;;;;;;;;;4999263;28;20550;-90
2022/09/11 05:55:13;;;;;;;0.10;0.10;;;;;;;;;;4999366;28;20087;-91
2022/09/11 05:57:39;;;;;;;0.10;0.10;;;;;;;;;;5000004;28;20132;-93
2022/09/11 06:00:05;;;;;;;0.10;0.10;;;;;;;;;;5000098;28;20404;-90
2022/09/11 06:02:31;;;;;;;0.10;0.10;;;;;;;;;;4999249;28;20471;-90
2022/09/11 06:04:57;;;;;;;0.10;0.10;;;;;;;;;;4999291;28;20107;-91
2022/09/11 06:07:25;;;;;;;0.10;0.10;;;;;;;;;;4983135;28;20087;-92
2022/09/11 06:09:51;;;;;;;0.10;0.10;;;;;;;;;;5000411;28;20045;-91
2022/09/11 06:12:17;;;;;;;0.10;0.10;;;;;;;;;;4998879;28;20033;-92
2022/09/11 06:14:43;;;;;;;0.10;0.10;;;;;;;;;;4982849;28;20171;-91
2022/09/11 06:17:11;;;;;;;0.10;0.10;;;;;;;;;;4983039;28;20361;-93
2022/09/11 06:19:39;;;;;;;0.10;0.10;;;;;;;;;;4982887;28;20037;-93
2022/09/11 06:22:05;;;;;;;0.10;0.10;;;;;;;;;;4998825;28;20052;-93
2022/09/11 06:24:31;;;;;;;0.10;0.10;;;;;;;;;;4983127;28;20095;-93
2022/09/11 06:26:59;;;;;;;0.10;0.10;;;;;;;;;;4983109;28;20045;-93
2022/09/11 06:29:26;;;;;;;0.10;0.10;;;;;;;;;;4998838;28;20128;-92
2022/09/11 06:31:55;;;;;;;0.10;0.10;;;;;;;;;;4982743;28;20611;-93
2022/09/11 06:34:25;;;;;;;0.10;0.10;;;;;;;;;;4998676;28;20524;-93
2022/09/11 06:36:52;;;;;;;0.10;0.10;;;;;;;;;;4998779;28;20397;-93
2022/09/11 06:39:21;;;;;;;0.10;0.10;;;;;;;;;;4982635;28;20045;-94
2022/09/11 06:41:47;;;;;;;0.10;0.10;;;;;;;;;;4983524;28;20052;-94
2022/09/11 06:44:14;;;;;;;0.10;0.10;;;;;;;;;;4982732;28;20037;-94
2022/09/11 06:46:44;;;;;;;0.10;0.10;;;;;;;;;;4982643;28;20045;-95
2022/09/11 06:49:10;;;;;;;0.10;0.10;;;;;;;;;;4999406;28;20037;-95
2022/09/11 06:51:41;;;;;;;0.10;0.10;;;;;;;;;;4982340;28;20053;-92
2022/09/11 06:54:07;;;;;;;0.17;0.17;;;;;;;;;;4982694;28;20117;-94
2022/09/11 06:56:33;;;;;;;0.10;0.10;;;;;;;;;;4982170;28;20041;-93
2022/09/11 06:59:00;;;;;;;0.20;0.20;;;;;;;;;;4982075;28;20037;-93
2022/09/11 07:01:27;;;;;;;0.10;0.10;;;;;;;;;;5000845;28;20091;-92
2022/09/11 07:03:53;;;;;;;0.13;0.13;;;;;;;;;;5001392;28;20040;-93
2022/09/11 07:06:20;;;;;;;0.20;0.20;;;;;;;;;;5001296;28;20079;-92
2022/09/11 07:09:14;;;;;;;0.10;0.10;;;;;;;;;;5001441;28;20072;-92
2022/09/11 07:11:45;;;;;;;0.10;0.10;;;;;;;;;;5033917;28;20558;-91
2022/09/11 07:14:11;;;;;;;0.10;0.10;;;;;;;;;;5001927;28;20087;-90
2022/09/11 07:16:37;;;;;;;0.10;0.10;;;;;;;;;;5001270;28;20381;-90
2022/09/11 07:19:04;;;;;;;0.40;0.40;;;;;;;;;;5001062;28;20167;-91
2022/09/11 07:21:34;;;;;;;0.20;0.20;;;;;;;;;;5000785;28;20037;-91
2022/09/11 07:24:00;;;;;;;0.10;0.10;;;;;;;;;;5001558;28;20049;-92
2022/09/11 07:26:53;;;;;;;0.10;0.10;;;;;;;;;;5005635;28;20037;-96
2022/09/11 07:29:40;;;;;;;0.10;0.10;;;;;;;;;;5032911;28;20049;-94
2022/09/11 07:32:06;;;;;;;0.10;0.10;;;;;;;;;;4986713;28;20049;-91
2022/09/11 07:34:36;;;;;;;0.10;0.10;;;;;;;;;;5002698;28;20515;-96
2022/09/11 07:37:13;;;;;;;0.10;0.10;;;;;;;;;;5019239;28;20455;-94
2022/09/11 07:39:40;;;;;;;0.20;0.20;;;;;;;;;;5002511;28;20052;-93
2022/09/11 07:42:06;;;;;;;0.10;0.10;;;;;;;;;;5003690;28;20044;-93
2022/09/11 07:44:33;;;;;;;0.20;0.20;;;;;;;;;;5001081;28;20045;-93
2022/09/11 07:46:59;;;;;;;0.10;0.10;;;;;;;;;;5001031;28;20060;-93
2022/09/11 07:49:26;;;;;;;0.20;0.20;;;;;;;;;;5001345;28;20132;-93
2022/09/11 07:51:54;;;;;;;0.20;0.20;;;;;;;;;;5000848;28;20052;-93
2022/09/11 07:54:23;;;;;;;0.10;0.10;;;;;;;;;;5018496;28;20041;-93
2022/09/11 07:56:49;;;;;;;0.15;0.15;;;;;;;;;;5001045;28;20049;-92
2022/09/11 07:59:16;;;;;;;0.20;0.20;;;;;;;;;;5001145;28;20041;-92
2022/09/11 08:01:42;;;;;;;0.10;0.10;;;;;;;;;;4999421;28;20060;-91
2022/09/11 08:04:10;;;;;;;0.20;0.20;;;;;;;;;;5000961;28;20052;-94
2022/09/11 08:06:36;;;;;;;0.20;0.20;;;;;;;;;;5001284;28;20061;-92
2022/09/11 08:09:08;;;;;;;0.20;0.20;;;;;;;;;;5003047;28;20037;-92
2022/09/11 08:11:42;;;;;;;0.20;0.20;;;;;;;;;;5020743;28;20395;-91
2022/09/11 08:14:13;;;;;;;0.20;0.20;;;;;;;;;;5004754;28;20643;-92
2022/09/11 08:16:47;;;;;;;0.20;0.20;;;;;;;;;;5021090;28;20368;-91
2022/09/11 08:19:17;;;;;;;0.20;0.20;;;;;;;;;;5020753;28;20037;-90
2022/09/11 08:21:46;;;;;;;0.20;0.20;;;;;;;;;;5020419;28;20515;-91
2022/09/11 08:24:19;;;;;;;0.20;0.20;;;;;;;;;;5004810;28;20106;-92
2022/09/11 08:26:46;;;;;;;0.10;0.10;;;;;;;;;;5020389;28;20041;-93
2022/09/11 08:29:13;;;;;;;0.20;0.20;;;;;;;;;;5004825;28;20060;-90
2022/09/11 08:31:39;;;;;;;0.10;0.10;;;;;;;;;;5004218;28;20041;-91
2022/09/11 08:34:05;;;;;;;0.10;0.10;;;;;;;;;;5020339;28;20076;-90
2022/09/11 08:36:31;;;;;;;0.10;0.10;;;;;;;;;;5004220;28;20072;-90
2022/09/11 08:39:01;;;;;;;0.15;0.15;;;;;;;;;;5003940;28;20040;-90
2022/09/11 08:41:41;;;;;;;0.10;0.10;;;;;;;;;;5020001;28;20048;-92
2022/09/11 08:44:26;;;;;;;0.20;0.20;;;;;;;;;;5004266;28;20119;-92
2022/09/11 08:47:07;;;;;;;0.10;0.10;;;;;;;;;;5020390;28;20080;-94
2022/09/11 08:49:37;;;;;;;0.10;0.10;;;;;;;;;;5020793;28;20124;-92
2022/09/11 08:52:08;;;;;;;0.20;0.20;;;;;;;;;;5003940;28;20044;-93
2022/09/11 08:54:36;;;;;;;0.20;0.20;;;;;;;;;;5004528;28;20081;-92
2022/09/11 08:57:02;;;;;;;0.20;0.20;;;;;;;;;;5004015;28;20095;-94
2022/09/11 08:59:31;;;;;;;0.10;0.10;;;;;;;;;;5020871;28;20484;-93
2022/09/11 09:02:02;;;;;;;0.20;0.20;;;;;;;;;;5019708;28;20049;-93
2022/09/11 09:04:35;;;;;;;0.20;0.20;;;;;;;;;;5036520;28;20605;-93
2022/09/11 09:07:20;;;;;;;0.20;0.20;;;;;;;;;;5020041;28;20040;-92
2022/09/11 09:09:49;;;;;;;0.20;0.20;;;;;;;;;;5020016;28;20417;-94
2022/09/11 09:12:31;;;;;;;0.20;0.20;;;;;;;;;;5019989;28;20253;-91
2022/09/11 09:15:21;;;;;;;0.20;0.20;;;;;;;;;;5004735;28;20041;-95
2022/09/11 09:18:24;;;;;;;0.10;0.10;;;;;;;;;;5020390;28;20044;-91
2022/09/11 09:21:02;;;;;;;0.10;0.10;;;;;;;;;;5037029;28;20055;-94
2022/09/11 09:23:31;;;;;;;0.20;0.20;;;;;;;;;;5020695;28;20043;-92
2022/09/11 09:25:57;;;;;;;0.10;0.10;;;;;;;;;;5003776;28;20043;-92
2022/09/11 09:28:24;;;;;;;0.20;0.20;;;;;;;;;;5003411;28;20400;-91
2022/09/11 09:30:51;;;;;;;0.13;0.13;;;;;;;;;;5019354;28;20082;-92
2022/09/11 09:33:24;;;;;;;0.20;0.20;;;;;;;;;;5003649;28;20072;-93
2022/09/11 09:35:50;;;;;;;0.10;0.10;;;;;;;;;;5020677;28;20037;-93
2022/09/11 09:38:20;;;;;;;0.10;0.10;;;;;;;;;;5004081;28;20051;-92
2022/09/11 09:41:09;;;;;;;0.10;0.10;;;;;;;;;;5003936;28;20421;-94
2022/09/11 09:43:46;;;;;;;0.10;0.10;;;;;;;;;;4944413;28;20046;-93
2022/09/11 09:46:21;;;;;;;0.20;0.20;;;;;;;;;;5019332;28;20080;-93
2022/09/11 09:48:54;;;;;;;0.10;0.10;;;;;;;;;;5021014;28;20395;-93
2022/09/11 09:51:20;;;;;;;0.20;0.20;;;;;;;;;;5004909;28;20036;-94
2022/09/11 09:53:50;;;;;;;0.20;0.20;;;;;;;;;;5003532;28;20052;-93
2022/09/11 09:56:16;;;;;;;0.20;0.20;;;;;;;;;;5003681;28;20472;-94
2022/09/11 09:58:48;;;;;;;0.20;0.20;;;;;;;;;;5006045;28;20044;-96
2022/09/11 10:01:33;;;;;;;0.20;0.20;;;;;;;;;;5020871;28;20038;-95
2022/09/11 10:04:21;;;;;;;0.20;0.20;;;;;;;;;;5000220;28;20112;-93
2022/09/11 10:06:54;;;;;;;0.20;0.20;;;;;;;;;;5001052;28;20052;-95
2022/09/11 10:09:27;;;;;;;0.13;0.13;;;;;;;;;;4985066;28;20064;-94
2022/09/11 10:12:02;;;;;;;0.20;0.20;;;;;;;;;;4984604;28;20059;-93
2022/09/11 10:14:31;;;;;;;0.10;0.10;;;;;;;;;;4986832;28;20051;-94
2022/09/11 10:16:57;;;;;;;0.10;0.10;;;;;;;;;;4984788;28;20041;-94
2022/09/11 10:19:50;;;;;;;0.20;0.20;;;;;;;;;;4985012;28;20051;-94
2022/09/11 10:22:24;;;;;;;0.20;0.20;;;;;;;;;;4997584;28;20053;-93
2022/09/11 10:25:02;;;;;;;0.20;0.20;;;;;;;;;;4984133;28;20049;-96
2022/09/11 10:27:30;;;;;;;0.20;0.20;;;;;;;;;;4984430;28;20123;-94
2022/09/11 10:29:57;;;;;;;0.20;0.20;;;;;;;;;;4983603;28;20095;-94
2022/09/11 10:32:31;;;;;;;0.10;0.10;;;;;;;;;;5002099;28;20103;-95
2022/09/11 10:34:57;;;;;;;0.15;0.15;;;;;;;;;;4983179;28;20049;-92
2022/09/11 10:37:24;;;;;;;0.20;0.20;;;;;;;;;;4984931;28;20128;-94
2022/09/11 10:39:54;;;;;;;0.20;0.20;;;;;;;;;;4999945;28;20041;-95
2022/09/11 10:42:23;;;;;;;0.20;0.20;;;;;;;;;;4999754;28;20099;-93
2022/09/11 10:44:50;;;;;;;0.10;0.10;;;;;;;;;;4998705;28;20045;-94
2022/09/11 10:47:17;;;;;;;0.20;0.20;;;;;;;;;;4999375;28;20041;-96
2022/09/11 10:49:43;;;;;;;0.10;0.10;;;;;;;;;;4983082;28;20045;-94
2022/09/11 10:52:09;;;;;;;0.10;0.10;;;;;;;;;;4983228;28;20048;-95
2022/09/11 10:54:44;;;;;;;0.10;0.10;;;;;;;;;;5000296;28;20059;-95
2022/09/11 10:57:29;;;;;;;0.20;0.20;;;;;;;;;;4983464;28;20404;-93
2022/09/11 11:00:14;;;;;;;0.10;0.10;;;;;;;;;;5001002;28;20052;-93
2022/09/11 11:03:03;;;;;;;0.10;0.10;;;;;;;;;;5008939;28;20511;-93
2022/09/11 11:05:36;;;;;;;0.10;0.10;;;;;;;;;;5035090;28;20041;-96
2022/09/11 11:08:24;;;;;;;0.15;0.15;;;;;;;;;;5022759;28;20098;-95
2022/09/11 11:11:04;;;;;;;0.10;0.10;;;;;;;;;;5044205;28;20057;-95
2022/09/11 11:13:55;;;;;;;0.20;0.20;;;;;;;;;;5053067;28;20048;-92
2022/09/11 11:16:26;;;;;;;0.10;0.10;;;;;;;;;;5001481;28;20097;-93
2022/09/11 11:19:05;;;;;;;0.10;0.10;;;;;;;;;;5001685;28;20134;-93
2022/09/11 11:21:40;;;;;;;0.10;0.10;;;;;;;;;;5017372;28;20044;-92
2022/09/11 11:24:16;;;;;;;0.20;0.20;;;;;;;;;;5017596;28;20041;-91
2022/09/11 11:27:03;;;;;;;0.10;0.10;;;;;;;;;;5017302;28;20033;-92
2022/09/11 11:29:41;;;;;;;0.10;0.10;;;;;;;;;;5001301;28;20037;-93
2022/09/11 11:32:07;;;;;;;0.10;0.10;;;;;;;;;;5017933;28;20049;-93
2022/09/11 11:34:36;;;;;;;0.10;0.10;;;;;;;;;;5017733;28;20045;-91
2022/09/11 11:37:17;;;;;;;0.10;0.10;;;;;;;;;;5017447;28;20037;-91
2022/09/11 11:39:47;;;;;;;0.10;0.10;;;;;;;;;;5034166;28;20506;-92
2022/09/11 11:42:14;;;;;;;0.10;0.10;;;;;;;;;;5017349;28;20365;-93
2022/09/11 11:44:42;;;;;;;0.10;0.10;;;;;;;;;;5021319;28;20083;-91
2022/09/11 11:47:36;;;;;;;0.15;0.15;;;;;;;;;;5031623;28;20040;-96
2022/09/11 11:50:36;;;;;;;0.10;0.10;;;;;;;;;;4934634;28;20071;-96
2022/09/11 11:53:20;;;;;;;0.10;0.10;;;;;;;;;;4963724;28;20100;-96
2022/09/11 11:56:01;;;;;;;0.10;0.10;;;;;;;;;;5021731;28;20052;-96
2022/09/11 12:01:04;;;;;;;0.10;0.10;;;;;;;;;;5133959;22;20316;-96
2022/09/11 12:03:30;;;;;;;0.10;0.10;;;;;;;;;;4987179;28;20128;-96
2022/09/11 12:05:57;;;;;;;0.10;0.10;;;;;;;;;;5004792;28;20041;-96
2022/09/11 12:08:25;;;;;;;0.10;0.10;;;;;;;;;;5019227;28;20049;-95
2022/09/11 12:10:55;;;;;;;0.10;0.10;;;;;;;;;;4987204;28;20047;-94
2022/09/11 12:13:21;;;;;;;0.10;0.10;;;;;;;;;;4986490;28;20041;-94
2022/09/11 12:16:10;;;;;;;0.10;0.10;;;;;;;;;;4986414;28;20048;-94
2022/09/11 12:18:37;;;;;;;0.10;0.10;;;;;;;;;;4924295;29;20082;-93
2022/09/11 12:21:22;;;;;;;0.10;0.10;;;;;;;;;;4978412;28;20049;-91
2022/09/11 12:23:51;;;;;;;0.10;0.10;;;;;;;;;;5019979;28;20049;-93
2022/09/11 12:26:23;;;;;;;0.10;0.10;;;;;;;;;;5001815;28;20142;-91
2022/09/11 12:45:34;;;;;;;0.10;0.10;;;;;;;;;;5283064;22;20163;-95
2022/09/11 12:48:04;;;;;;;0.10;0.10;;;;;;;;;;5040762;28;20048;-95
2022/09/11 12:50:30;;;;;;;0.10;0.10;;;;;;;;;;5041295;28;20037;-95
2022/09/11 12:53:01;;;;;;;0.10;0.10;;;;;;;;;;5025551;28;20040;-96
2022/09/11 12:55:39;;;;;;;0.10;0.10;;;;;;;;;;5046472;28;20048;-96
2022/09/11 12:58:32;;;;;;;0.10;0.10;;;;;;;;;;5059570;28;20046;-96
2022/09/11 13:01:13;;;;;;;0.10;0.10;;;;;;;;;;5027963;28;20048;-95
2022/09/11 13:03:47;;;;;;;0.20;0.20;;;;;;;;;;5027848;28;20037;-95
2022/09/11 13:06:16;;;;;;;0.10;0.10;;;;;;;;;;5027408;28;20086;-94
2022/09/11 13:08:49;;;;;;;0.10;0.10;;;;;;;;;;5025563;28;20079;-95
2022/09/11 13:11:34;;;;;;;0.20;0.20;;;;;;;;;;5044954;28;20501;-93
2022/09/11 13:14:05;;;;;;;0.15;0.15;;;;;;;;;;5044668;28;20041;-93
2022/09/11 13:16:33;;;;;;;0.10;0.10;;;;;;;;;;5040194;28;20051;-92
2022/09/11 13:19:20;;;;;;;0.17;0.17;;;;;;;;;;5024052;28;20040;-92
2022/09/11 13:21:48;;;;;;;0.20;0.20;;;;;;;;;;5023997;28;20044;-92
2022/09/11 13:24:22;;;;;;;0.10;0.10;;;;;;;;;;5026217;28;20483;-95
2022/09/11 13:26:54;;;;;;;0.20;0.20;;;;;;;;;;5043395;28;20051;-93
2022/09/11 13:29:20;;;;;;;0.10;0.10;;;;;;;;;;5024005;28;20167;-92
2022/09/11 13:31:46;;;;;;;0.20;0.20;;;;;;;;;;5023148;28;20534;-92
2022/09/11 13:34:12;;;;;;;0.10;0.10;;;;;;;;;;5023175;28;20044;-92
2022/09/11 13:36:38;;;;;;;0.10;0.10;;;;;;;;;;5022836;28;20075;-92
2022/09/11 13:39:04;;;;;;;0.10;0.10;;;;;;;;;;5023092;28;20083;-93
2022/09/11 13:41:32;;;;;;;0.10;0.10;;;;;;;;;;5023337;28;20042;-92
2022/09/11 13:43:59;;;;;;;0.17;0.17;;;;;;;;;;5023078;28;20088;-93
2022/09/11 13:46:30;;;;;;;0.20;0.20;;;;;;;;;;5023076;28;20044;-93
2022/09/11 13:48:59;;;;;;;0.20;0.20;;;;;;;;;;5042132;28;20047;-95
2022/09/11 13:51:30;;;;;;;0.10;0.10;;;;;;;;;;5042771;28;20120;-96
2022/09/11 13:54:11;;;;;;;0.10;0.10;;;;;;;;;;5029398;28;20080;-94
2022/09/11 13:57:01;;;;;;;0.13;0.13;;;;;;;;;;5047824;28;20044;-96
2022/09/11 13:59:52;;;;;;;0.10;0.10;;;;;;;;;;5060214;28;20139;-96
2022/09/11 14:02:35;;;;;;;0.30;0.30;;;;;;;;;;5025905;28;20044;-96
2022/09/11 14:05:05;;;;;;;0.10;0.10;;;;;;;;;;5046442;28;20181;-96
2022/09/11 14:07:55;;;;;;;0.10;0.10;;;;;;;;;;5050935;28;20047;-96
2022/09/11 14:10:26;;;;;;;0.10;0.10;;;;;;;;;;5036102;28;20141;-93
2022/09/11 14:13:11;;;;;;;0.10;0.10;;;;;;;;;;5042937;28;20075;-96
2022/09/11 14:15:47;;;;;;;0.10;0.10;;;;;;;;;;5045572;28;20044;-96
2022/09/11 14:18:37;;;;;;;0.20;0.20;;;;;;;;;;5057310;28;20051;-95
2022/09/11 14:21:04;;;;;;;0.10;0.10;;;;;;;;;;5053876;28;20048;-94
2022/09/11 14:23:33;;;;;;;0.10;0.10;;;;;;;;;;5040641;28;20133;-94
2022/09/11 14:26:10;;;;;;;0.20;0.20;;;;;;;;;;5053313;28;20037;-93
2022/09/11 14:28:41;;;;;;;0.10;0.10;;;;;;;;;;5027438;28;20045;-94
2022/09/11 14:31:10;;;;;;;0.10;0.10;;;;;;;;;;5045414;28;20048;-95
2022/09/11 14:33:43;;;;;;;0.10;0.10;;;;;;;;;;5047922;28;20215;-96
2022/09/11 14:36:18;;;;;;;0.10;0.10;;;;;;;;;;5029940;28;20107;-93
2022/09/11 14:38:46;;;;;;;0.10;0.10;;;;;;;;;;5045959;28;20044;-94
2022/09/11 14:41:12;;;;;;;0.10;0.10;;;;;;;;;;5028386;28;20051;-96
2022/09/11 14:43:38;;;;;;;0.10;0.10;;;;;;;;;;5029215;28;20048;-94
2022/09/11 14:46:05;;;;;;;0.10;0.10;;;;;;;;;;5032846;28;20064;-96
2022/09/11 14:48:36;;;;;;;0.10;0.10;;;;;;;;;;5033999;28;20040;-96
2022/09/11 14:51:05;;;;;;;0.10;0.10;;;;;;;;;;5028015;28;20079;-94
2022/09/11 14:53:32;;;;;;;0.10;0.10;;;;;;;;;;5033917;28;20070;-94
2022/09/11 14:55:58;;;;;;;0.17;0.17;;;;;;;;;;5042682;28;20037;-91
2022/09/11 14:58:25;;;;;;;0.10;0.10;;;;;;;;;;5078918;28;20032;-91
2022/09/11 15:00:51;;;;;;;0.20;0.20;;;;;;;;;;5045034;28;20039;-92
2022/09/11 15:03:17;;;;;;;0.10;0.10;;;;;;;;;;5062107;28;20044;-91
2022/09/11 15:05:44;;;;;;;0.10;0.10;;;;;;;;;;5046487;28;20044;-92
2022/09/11 15:08:11;;;;;;;0.10;0.10;;;;;;;;;;5046270;28;20037;-93
2022/09/11 15:10:37;;;;;;;0.10;0.10;;;;;;;;;;5062433;28;20040;-93
2022/09/11 15:13:06;;;;;;;0.20;0.20;;;;;;;;;;5037568;28;20041;-93
2022/09/11 15:15:33;;;;;;;0.10;0.10;;;;;;;;;;5040378;28;20538;-95
2022/09/11 15:17:59;;;;;;;0.10;0.10;;;;;;;;;;5023529;28;20087;-94
2022/09/11 15:20:26;;;;;;;0.10;0.10;;;;;;;;;;5024162;28;20050;-95
2022/09/11 15:22:52;;;;;;;0.10;0.10;;;;;;;;;;5025857;28;20033;-95
2022/09/11 15:25:18;;;;;;;0.10;0.10;;;;;;;;;;5027763;28;20090;-92